Time;durP1;ratioP1;P1;durP2;ratioP2;P2;SDS_P1;SDS_P2;PMS_P1;PMS_P2;Temp;Humidity;BMP_temperature;BMP_pressure;BME280_temperature;BME280_humidity;BME280_pressure;Samples;Min_cycle;Max_cycle;Signal;HPM_P1;HPM_P2
2023/09/01 00:00:59;;;;;;;6.38;2.63;;;12.90;99.90;;;;;;4948752;28;20031;-94
2023/09/01 00:03:25;;;;;;;11.88;2.95;;;12.80;99.90;;;;;;4948110;29;20027;-91
2023/09/01 00:05:50;;;;;;;8.38;2.95;;;12.80;99.90;;;;;;4955241;28;20046;-92
2023/09/01 00:08:16;;;;;;;4.65;2.90;;;12.80;99.90;;;;;;4951298;29;20027;-89
2023/09/01 00:10:42;;;;;;;4.97;2.90;;;12.80;99.90;;;;;;4948884;29;20477;-90
2023/09/01 00:13:07;;;;;;;10.73;2.88;;;12.80;99.90;;;;;;4948370;28;20023;-94
2023/09/01 00:15:33;;;;;;;5.15;2.97;;;12.80;99.90;;;;;;4931462;28;20492;-92
2023/09/01 00:17:59;;;;;;;7.20;3.20;;;12.90;99.90;;;;;;4949685;28;20031;-88
2023/09/01 00:20:24;;;;;;;4.10;2.65;;;12.90;99.90;;;;;;4948516;29;20110;-89
2023/09/01 00:22:50;;;;;;;8.48;3.20;;;12.90;99.90;;;;;;4946035;29;20494;-89
2023/09/01 00:25:16;;;;;;;6.80;2.72;;;13.00;99.90;;;;;;4930879;28;20054;-93
2023/09/01 00:27:41;;;;;;;5.05;2.60;;;13.10;99.90;;;;;;4947315;29;20038;-94
2023/09/01 00:30:09;;;;;;;8.25;3.45;;;13.10;99.90;;;;;;4949186;29;20086;-91
2023/09/01 00:32:35;;;;;;;6.13;3.00;;;13.10;99.90;;;;;;4948693;28;20031;-85
2023/09/01 00:35:03;;;;;;;15.10;3.92;;;13.10;99.90;;;;;;4948776;29;20042;-89
2023/09/01 00:37:28;;;;;;;10.50;3.17;;;13.10;99.90;;;;;;4948786;28;20019;-91
2023/09/01 00:39:55;;;;;;;14.13;4.05;;;13.10;99.90;;;;;;4946289;28;20493;-90
2023/09/01 00:42:20;;;;;;;10.23;3.03;;;13.10;99.90;;;;;;4950351;28;20027;-91
2023/09/01 00:44:46;;;;;;;5.30;2.70;;;13.10;99.90;;;;;;4931899;29;21189;-94
2023/09/01 00:47:13;;;;;;;10.38;3.15;;;13.10;99.90;;;;;;4950462;28;20472;-93
2023/09/01 00:49:39;;;;;;;5.95;2.85;;;13.10;99.90;;;;;;4944904;28;20150;-90
2023/09/01 00:52:05;;;;;;;8.27;3.53;;;13.10;99.90;;;;;;4946509;28;20027;-93
2023/09/01 00:54:31;;;;;;;10.10;3.75;;;13.10;99.90;;;;;;4946785;28;20086;-92
2023/09/01 00:56:57;;;;;;;8.48;3.60;;;13.10;99.90;;;;;;4929707;29;20465;-92
2023/09/01 00:59:24;;;;;;;7.82;3.17;;;13.20;99.90;;;;;;4947651;28;20054;-95
2023/09/01 01:01:51;;;;;;;8.60;2.80;;;13.20;99.90;;;;;;4945579;28;20035;-94
2023/09/01 01:04:20;;;;;;;6.47;3.05;;;13.30;99.90;;;;;;4949528;29;20098;-90
2023/09/01 01:06:52;;;;;;;10.85;3.40;;;13.30;99.90;;;;;;4950241;29;20045;-92
2023/09/01 01:09:56;;;;;;;8.40;3.00;;;13.30;99.90;;;;;;4948314;28;20034;-91
2023/09/01 01:12:45;;;;;;;9.32;3.40;;;13.30;99.90;;;;;;4947333;28;20027;-93
2023/09/01 01:15:15;;;;;;;9.65;3.97;;;13.20;99.90;;;;;;4941007;28;20066;-90
2023/09/01 01:17:46;;;;;;;4.55;3.20;;;13.20;99.90;;;;;;4947293;29;20055;-89
2023/09/01 01:20:24;;;;;;;9.98;4.10;;;13.10;99.90;;;;;;4947035;29;20030;-91
2023/09/01 01:23:05;;;;;;;8.55;4.20;;;13.10;99.90;;;;;;4946810;29;20058;-92
2023/09/01 01:25:30;;;;;;;11.38;4.00;;;13.10;99.90;;;;;;4945865;28;20038;-92
2023/09/01 01:28:07;;;;;;;15.35;5.22;;;13.10;99.90;;;;;;4943576;28;20086;-93
2023/09/01 01:30:32;;;;;;;7.65;3.65;;;13.10;99.90;;;;;;4947198;28;20079;-89
2023/09/01 01:32:58;;;;;;;7.47;3.28;;;13.10;99.90;;;;;;4949705;29;20031;-93
2023/09/01 01:35:49;;;;;;;13.00;3.85;;;13.10;99.90;;;;;;4931679;29;20070;-90
2023/09/01 01:38:22;;;;;;;11.40;4.20;;;13.10;99.90;;;;;;4944444;28;20213;-86
2023/09/01 01:40:53;;;;;;;5.35;3.53;;;13.10;99.90;;;;;;4947291;28;20078;-92
2023/09/01 01:43:22;;;;;;;9.40;4.32;;;13.10;99.90;;;;;;4947075;28;20485;-86
2023/09/01 01:45:49;;;;;;;7.25;3.88;;;13.10;99.90;;;;;;4946206;28;20071;-89
2023/09/01 01:48:15;;;;;;;7.30;4.35;;;13.10;99.90;;;;;;4945288;28;20031;-93
2023/09/01 01:50:41;;;;;;;10.13;4.18;;;13.10;99.90;;;;;;4947577;29;20119;-93
2023/09/01 01:53:07;;;;;;;8.80;4.22;;;13.10;99.90;;;;;;4947333;28;20536;-93
2023/09/01 01:55:34;;;;;;;12.45;5.35;;;13.10;99.90;;;;;;4929570;29;20031;-92
2023/09/01 01:58:00;;;;;;;11.15;4.22;;;13.10;99.90;;;;;;4946447;28;20027;-95
2023/09/01 02:00:27;;;;;;;14.82;4.78;;;13.10;99.90;;;;;;4945572;28;20043;-92
2023/09/01 02:02:53;;;;;;;10.95;4.35;;;13.20;99.90;;;;;;4945826;28;20034;-93
2023/09/01 02:05:19;;;;;;;9.52;4.45;;;13.20;99.90;;;;;;4950930;28;20108;-93
2023/09/01 02:07:45;;;;;;;10.55;4.35;;;13.20;99.90;;;;;;4942200;28;20031;-93
2023/09/01 02:10:11;;;;;;;12.65;4.55;;;13.20;99.90;;;;;;4947966;28;20042;-92
2023/09/01 02:12:37;;;;;;;15.65;4.55;;;13.20;99.90;;;;;;4936801;29;20068;-92
2023/09/01 02:15:08;;;;;;;11.93;4.55;;;13.20;99.90;;;;;;4945673;28;20035;-89
2023/09/01 02:17:36;;;;;;;10.20;3.53;;;13.20;99.90;;;;;;4953840;28;20030;-95
2023/09/01 02:20:10;;;;;;;9.27;4.35;;;13.20;99.90;;;;;;4946583;28;20034;-92
2023/09/01 02:22:36;;;;;;;12.57;5.05;;;13.20;99.90;;;;;;4928659;29;20038;-91
2023/09/01 02:25:08;;;;;;;9.77;3.63;;;13.20;99.90;;;;;;4927547;28;20145;-90
2023/09/01 02:27:33;;;;;;;8.20;4.00;;;13.20;99.90;;;;;;4945821;29;20027;-95
2023/09/01 02:29:59;;;;;;;12.32;4.45;;;13.20;99.90;;;;;;4946837;28;20544;-91
2023/09/01 02:32:25;;;;;;;14.68;3.80;;;13.30;99.90;;;;;;4946748;29;20049;-91
2023/09/01 02:34:51;;;;;;;10.50;3.55;;;13.30;99.90;;;;;;4948105;28;20027;-93
2023/09/01 02:37:16;;;;;;;10.65;4.95;;;13.30;99.90;;;;;;4947352;28;20027;-90
2023/09/01 02:39:42;;;;;;;8.27;4.13;;;13.30;99.90;;;;;;4945485;28;20124;-94
2023/09/01 02:42:07;;;;;;;7.70;3.60;;;13.30;99.90;;;;;;4938496;29;20031;-92
2023/09/01 02:44:33;;;;;;;11.35;3.50;;;13.30;99.90;;;;;;4939619;28;20525;-92
2023/09/01 02:46:59;;;;;;;12.20;3.53;;;13.30;99.90;;;;;;4943358;29;20486;-93
2023/09/01 02:49:25;;;;;;;7.97;3.65;;;13.30;99.90;;;;;;4947768;28;20024;-92
2023/09/01 02:51:51;;;;;;;7.32;3.72;;;13.40;99.90;;;;;;4943205;29;20031;-91
2023/09/01 02:54:17;;;;;;;15.00;4.13;;;13.40;99.90;;;;;;4943380;28;20031;-90
2023/09/01 02:56:42;;;;;;;6.70;3.85;;;13.40;99.90;;;;;;4923769;29;20221;-90
2023/09/01 02:59:08;;;;;;;9.82;3.75;;;13.40;99.90;;;;;;4945997;28;20233;-92
2023/09/01 03:01:33;;;;;;;11.20;3.50;;;13.40;99.90;;;;;;4943839;29;20493;-94
2023/09/01 03:03:59;;;;;;;10.82;4.45;;;13.40;99.90;;;;;;4947138;29;20370;-84
2023/09/01 03:06:26;;;;;;;8.13;3.78;;;13.40;99.90;;;;;;4946384;28;20445;-93
2023/09/01 03:08:51;;;;;;;8.73;4.05;;;13.40;99.90;;;;;;4945151;28;20053;-92
2023/09/01 03:11:17;;;;;;;8.85;4.13;;;13.40;99.90;;;;;;4945148;29;20477;-92
2023/09/01 03:13:43;;;;;;;15.30;4.00;;;13.40;99.90;;;;;;4946303;28;20062;-92
2023/09/01 03:16:08;;;;;;;13.35;4.60;;;13.40;99.90;;;;;;4946797;28;20027;-92
2023/09/01 03:18:34;;;;;;;21.42;5.07;;;13.40;99.90;;;;;;4928229;29;20038;-93
2023/09/01 03:21:10;;;;;;;9.38;4.15;;;13.40;99.90;;;;;;4945580;29;20546;-87
2023/09/01 03:23:36;;;;;;;9.98;3.65;;;13.50;99.90;;;;;;4944983;29;20070;-92
2023/09/01 03:26:05;;;;;;;13.70;3.55;;;13.50;99.90;;;;;;4947415;28;20051;-91
2023/09/01 03:28:31;;;;;;;13.95;4.25;;;13.50;99.90;;;;;;4946014;28;20019;-92
2023/09/01 03:30:57;;;;;;;12.25;3.92;;;13.40;99.90;;;;;;4944538;28;20445;-91
2023/09/01 03:33:23;;;;;;;10.43;3.67;;;13.40;99.90;;;;;;4945798;29;20023;-94
2023/09/01 03:35:49;;;;;;;13.65;4.05;;;13.40;99.90;;;;;;4946730;29;20023;-94
2023/09/01 03:38:14;;;;;;;10.85;3.22;;;13.40;99.90;;;;;;4947484;29;20023;-94
2023/09/01 03:40:40;;;;;;;9.85;3.58;;;13.40;99.90;;;;;;4944109;29;20055;-83
2023/09/01 03:43:09;;;;;;;10.82;3.30;;;13.40;99.90;;;;;;4944201;28;20031;-89
2023/09/01 03:45:38;;;;;;;10.38;3.28;;;13.40;99.90;;;;;;4924770;29;20375;-84
2023/09/01 03:48:06;;;;;;;10.43;3.20;;;13.50;99.90;;;;;;4945539;28;20501;-94
2023/09/01 03:50:34;;;;;;;9.57;3.60;;;13.40;99.90;;;;;;4942588;29;20031;-91
2023/09/01 03:52:59;;;;;;;7.32;3.53;;;13.40;99.90;;;;;;4949155;28;20450;-91
2023/09/01 03:55:27;;;;;;;15.35;4.30;;;13.40;99.90;;;;;;4944875;29;20393;-88
2023/09/01 03:57:53;;;;;;;10.57;3.75;;;13.40;99.90;;;;;;4945304;28;20133;-93
2023/09/01 04:00:20;;;;;;;13.65;3.95;;;13.40;99.90;;;;;;4946117;28;20047;-92
2023/09/01 04:02:45;;;;;;;12.48;4.10;;;13.40;99.90;;;;;;4945094;28;20388;-92
2023/09/01 04:05:11;;;;;;;10.77;3.47;;;13.40;99.90;;;;;;4952533;28;20044;-92
2023/09/01 04:07:37;;;;;;;13.13;4.00;;;13.50;99.90;;;;;;4945811;29;20028;-91
2023/09/01 04:10:04;;;;;;;16.98;3.78;;;13.50;99.90;;;;;;4940334;28;20035;-94
2023/09/01 04:12:30;;;;;;;7.15;3.55;;;13.50;99.90;;;;;;4945074;28;20485;-93
2023/09/01 04:14:55;;;;;;;20.13;4.90;;;13.50;99.90;;;;;;4944712;29;20127;-92
2023/09/01 04:17:21;;;;;;;9.85;3.80;;;13.50;99.90;;;;;;4947234;28;20059;-90
2023/09/01 04:19:47;;;;;;;13.73;4.10;;;13.60;99.90;;;;;;4945652;29;20063;-92
2023/09/01 04:22:14;;;;;;;12.82;4.45;;;13.60;99.90;;;;;;4940116;28;20055;-92
2023/09/01 04:24:39;;;;;;;10.45;4.07;;;13.60;99.90;;;;;;4944304;29;20062;-93
2023/09/01 04:27:05;;;;;;;19.75;4.68;;;13.50;99.90;;;;;;4946497;28;20121;-93
2023/09/01 04:29:31;;;;;;;12.40;4.30;;;13.60;99.90;;;;;;4950028;28;20074;-91
2023/09/01 04:31:56;;;;;;;12.23;4.07;;;13.60;99.90;;;;;;4947493;28;20457;-92
2023/09/01 04:34:22;;;;;;;12.02;4.35;;;13.60;99.90;;;;;;4948231;28;20031;-95
2023/09/01 04:36:50;;;;;;;15.63;3.97;;;13.60;99.90;;;;;;4944211;28;20035;-94
2023/09/01 04:39:17;;;;;;;12.15;4.20;;;13.60;99.90;;;;;;4946662;28;20082;-93
2023/09/01 04:41:43;;;;;;;12.30;4.20;;;13.60;99.90;;;;;;4946615;28;20122;-95
2023/09/01 04:44:08;;;;;;;6.65;2.58;;;13.60;99.90;;;;;;4949497;28;20050;-92
2023/09/01 04:46:34;;;;;;;6.57;3.50;;;13.70;99.90;;;;;;4947316;29;20422;-93
2023/09/01 04:49:00;;;;;;;9.23;3.90;;;13.60;99.90;;;;;;4948413;28;20513;-91
2023/09/01 04:51:25;;;;;;;9.52;3.78;;;13.60;99.90;;;;;;4947739;29;20027;-92
2023/09/01 04:53:51;;;;;;;8.38;3.60;;;13.60;99.90;;;;;;4948545;29;20451;-90
2023/09/01 04:56:16;;;;;;;10.95;3.42;;;13.60;99.90;;;;;;4949993;28;20075;-92
2023/09/01 04:58:42;;;;;;;11.60;4.20;;;13.70;99.90;;;;;;4947361;29;20241;-93
2023/09/01 05:01:08;;;;;;;8.32;3.67;;;13.80;99.90;;;;;;4946694;28;20039;-91
2023/09/01 05:03:34;;;;;;;16.55;3.97;;;13.80;99.90;;;;;;4949748;29;20023;-94
2023/09/01 05:06:00;;;;;;;10.65;3.83;;;13.80;99.90;;;;;;4933168;29;20043;-94
2023/09/01 05:08:28;;;;;;;13.00;3.63;;;13.90;99.90;;;;;;4953752;28;20140;-94
2023/09/01 05:10:54;;;;;;;9.77;3.03;;;13.90;99.90;;;;;;4947102;28;20039;-92
2023/09/01 05:13:20;;;;;;;25.40;4.25;;;13.90;99.90;;;;;;4948226;29;20564;-93
2023/09/01 05:15:48;;;;;;;7.97;2.60;;;13.90;99.90;;;;;;4946935;28;20031;-91
2023/09/01 05:18:13;;;;;;;8.27;3.83;;;13.90;99.90;;;;;;4947955;29;20553;-93
2023/09/01 05:20:39;;;;;;;7.20;3.13;;;13.90;99.90;;;;;;4950409;29;20114;-95
2023/09/01 05:23:04;;;;;;;11.82;2.90;;;13.80;99.90;;;;;;4948763;29;20037;-91
2023/09/01 05:25:31;;;;;;;9.52;3.28;;;13.80;99.90;;;;;;4947131;29;20047;-94
2023/09/01 05:27:57;;;;;;;13.57;3.67;;;13.80;99.90;;;;;;4952113;28;20036;-95
2023/09/01 05:30:23;;;;;;;9.80;3.05;;;13.80;99.90;;;;;;4949517;28;20122;-95
2023/09/01 05:32:48;;;;;;;10.75;2.92;;;13.80;99.90;;;;;;4948256;29;20043;-93
2023/09/01 05:35:14;;;;;;;8.07;3.88;;;13.80;99.90;;;;;;4948020;28;20059;-95
2023/09/01 05:37:40;;;;;;;8.30;3.10;;;13.80;99.90;;;;;;4949954;28;20055;-95
2023/09/01 05:40:07;;;;;;;8.63;2.85;;;13.90;99.90;;;;;;4947592;28;20036;-94
2023/09/01 05:42:32;;;;;;;3.70;2.50;;;13.80;99.90;;;;;;4948143;28;20035;-93
2023/09/01 05:44:58;;;;;;;5.93;2.53;;;13.80;99.90;;;;;;4947206;28;20031;-94
2023/09/01 05:47:24;;;;;;;8.98;2.45;;;13.90;99.90;;;;;;4944041;29;20050;-95
2023/09/01 05:49:50;;;;;;;9.25;2.60;;;13.90;99.90;;;;;;4931641;29;20062;-96
2023/09/01 05:52:15;;;;;;;6.82;3.03;;;13.90;99.90;;;;;;4950111;29;20118;-95
2023/09/01 05:54:41;;;;;;;9.13;3.03;;;13.90;99.90;;;;;;4947192;28;20064;-95
2023/09/01 05:57:06;;;;;;;6.35;2.40;;;13.90;99.90;;;;;;4948738;29;20489;-96
2023/09/01 05:59:32;;;;;;;7.18;2.40;;;13.90;99.90;;;;;;4947263;29;20058;-96
2023/09/01 06:01:58;;;;;;;18.98;3.60;;;13.90;99.90;;;;;;4947351;29;20605;-95
2023/09/01 06:04:23;;;;;;;12.27;3.28;;;13.90;99.90;;;;;;4946799;28;20091;-94
2023/09/01 06:06:49;;;;;;;16.38;3.28;;;13.90;99.90;;;;;;4949348;29;20039;-94
2023/09/01 06:09:16;;;;;;;12.32;3.33;;;13.90;99.90;;;;;;4949642;28;20027;-94
2023/09/01 06:11:42;;;;;;;10.10;2.78;;;13.90;99.90;;;;;;4947093;28;20032;-95
2023/09/01 06:14:07;;;;;;;18.08;3.22;;;13.80;99.90;;;;;;4930623;29;20359;-94
2023/09/01 06:16:33;;;;;;;9.90;3.40;;;13.90;99.90;;;;;;4945853;28;20118;-94
2023/09/01 06:19:00;;;;;;;6.25;2.95;;;13.80;99.90;;;;;;4947225;29;20043;-93
2023/09/01 06:21:26;;;;;;;5.82;2.50;;;13.80;99.90;;;;;;4948742;29;20485;-95
2023/09/01 06:23:52;;;;;;;5.22;2.95;;;13.80;99.90;;;;;;4948910;29;20106;-94
2023/09/01 06:26:18;;;;;;;5.25;2.70;;;13.90;99.90;;;;;;4946941;29;20146;-94
2023/09/01 06:28:45;;;;;;;3.33;2.05;;;13.90;99.90;;;;;;4946845;28;20046;-94
2023/09/01 06:31:13;;;;;;;5.68;3.03;;;14.00;99.90;;;;;;4945871;28;20393;-94
2023/09/01 06:33:42;;;;;;;11.15;3.08;;;14.00;99.90;;;;;;4948983;29;20537;-95
2023/09/01 06:36:09;;;;;;;10.80;3.65;;;14.00;99.90;;;;;;4948548;29;20027;-95
2023/09/01 06:38:35;;;;;;;8.88;2.80;;;14.10;99.90;;;;;;4946264;29;20030;-95
2023/09/01 06:41:03;;;;;;;8.48;3.25;;;14.20;99.90;;;;;;4946051;29;20055;-96
2023/09/01 06:43:30;;;;;;;9.98;3.28;;;14.20;99.90;;;;;;4947430;28;20028;-95
2023/09/01 06:45:56;;;;;;;6.10;2.83;;;14.20;99.90;;;;;;4949886;29;20085;-95
2023/09/01 06:48:22;;;;;;;5.35;2.33;;;14.30;99.90;;;;;;4950417;29;20106;-96
2023/09/01 06:50:48;;;;;;;11.13;3.25;;;14.30;99.90;;;;;;4948006;28;20126;-96
2023/09/01 06:53:13;;;;;;;11.15;3.50;;;14.30;99.90;;;;;;4945978;29;20034;-95
2023/09/01 06:55:39;;;;;;;9.98;3.70;;;14.30;99.90;;;;;;4929687;29;20490;-95
2023/09/01 06:58:05;;;;;;;7.65;2.55;;;14.40;99.90;;;;;;4948455;29;20077;-95
2023/09/01 07:00:31;;;;;;;9.32;3.10;;;14.40;99.90;;;;;;4947223;28;20071;-96
2023/09/01 07:02:57;;;;;;;7.07;3.65;;;14.40;99.90;;;;;;4945938;29;20062;-94
2023/09/01 07:05:23;;;;;;;11.48;3.80;;;14.50;99.90;;;;;;4946427;29;20105;-94
2023/09/01 07:07:52;;;;;;;7.50;3.10;;;14.60;99.90;;;;;;4946892;29;20031;-96
2023/09/01 07:10:19;;;;;;;12.50;3.30;;;14.70;99.90;;;;;;4945903;29;20031;-92
2023/09/01 07:12:44;;;;;;;17.02;3.13;;;14.70;99.90;;;;;;4948267;29;20397;-94
2023/09/01 07:15:11;;;;;;;13.82;3.13;;;14.70;99.90;;;;;;4946183;29;20035;-95
2023/09/01 07:17:36;;;;;;;6.78;3.60;;;14.80;99.90;;;;;;4946037;29;20035;-94
2023/09/01 07:20:05;;;;;;;6.78;3.28;;;14.70;99.90;;;;;;4945755;29;20034;-95
2023/09/01 07:22:31;;;;;;;6.00;2.80;;;14.90;99.90;;;;;;4945523;29;20031;-94
2023/09/01 07:24:56;;;;;;;13.93;3.28;;;15.00;99.90;;;;;;4945663;29;20027;-96
2023/09/01 07:27:22;;;;;;;8.25;2.50;;;14.90;99.90;;;;;;4946712;29;20110;-95
2023/09/01 07:29:48;;;;;;;6.82;2.65;;;15.00;99.90;;;;;;4948022;29;20046;-94
2023/09/01 07:32:15;;;;;;;11.18;3.42;;;15.00;99.90;;;;;;4948064;29;20028;-95
2023/09/01 07:34:41;;;;;;;13.70;2.92;;;15.00;99.90;;;;;;4948076;29;20035;-94
2023/09/01 07:37:07;;;;;;;7.60;3.08;;;15.00;99.90;;;;;;4945886;29;20035;-94
2023/09/01 07:39:34;;;;;;;12.02;3.53;;;15.00;99.90;;;;;;4945498;29;20027;-94
2023/09/01 07:42:04;;;;;;;9.55;3.63;;;15.00;99.90;;;;;;4945457;29;20031;-95
2023/09/01 07:44:31;;;;;;;8.93;3.58;;;15.10;99.90;;;;;;4946410;29;20564;-96
2023/09/01 07:46:57;;;;;;;7.32;3.53;;;15.10;99.90;;;;;;4945156;29;20039;-93
2023/09/01 07:49:23;;;;;;;10.27;3.97;;;15.10;99.90;;;;;;4945920;29;20035;-94
2023/09/01 07:51:49;;;;;;;5.97;3.78;;;15.20;99.90;;;;;;4947907;29;20216;-94
2023/09/01 07:54:15;;;;;;;9.05;3.58;;;15.20;99.90;;;;;;4947293;29;20042;-93
2023/09/01 07:56:41;;;;;;;11.73;3.85;;;15.30;99.90;;;;;;4945659;29;20031;-93
2023/09/01 07:59:06;;;;;;;10.60;4.35;;;15.30;99.90;;;;;;4945812;29;20087;-92
2023/09/01 08:01:32;;;;;;;6.47;3.47;;;15.40;99.90;;;;;;4947164;28;20038;-95
2023/09/01 08:03:59;;;;;;;11.90;3.70;;;15.40;99.90;;;;;;4943053;29;20501;-93
2023/09/01 08:06:29;;;;;;;16.67;4.72;;;15.40;99.90;;;;;;4950275;29;20035;-94
2023/09/01 08:08:55;;;;;;;9.98;4.50;;;15.50;99.90;;;;;;4938233;29;20035;-94
2023/09/01 08:11:21;;;;;;;16.83;4.65;;;15.50;99.90;;;;;;4949746;29;20023;-91
2023/09/01 08:13:47;;;;;;;8.38;4.03;;;15.60;99.90;;;;;;4931900;29;20035;-92
2023/09/01 08:16:13;;;;;;;8.38;3.78;;;15.60;99.90;;;;;;4947849;29;20748;-91
2023/09/01 08:18:39;;;;;;;16.42;5.05;;;15.60;99.90;;;;;;4950620;29;20062;-93
2023/09/01 08:21:05;;;;;;;8.23;3.78;;;15.70;99.90;;;;;;4951303;29;20019;-95
2023/09/01 08:23:31;;;;;;;11.57;4.18;;;15.70;99.90;;;;;;4949933;29;20027;-95
2023/09/01 08:25:56;;;;;;;11.00;4.82;;;15.70;99.90;;;;;;4948728;29;20039;-96
2023/09/01 08:28:22;;;;;;;7.95;4.00;;;15.70;99.90;;;;;;4950095;29;20055;-93
2023/09/01 08:30:48;;;;;;;13.77;4.47;;;15.80;99.90;;;;;;4931744;29;20089;-96
2023/09/01 08:33:14;;;;;;;9.48;4.03;;;15.80;99.90;;;;;;4951823;29;20078;-95
2023/09/01 08:35:40;;;;;;;14.18;4.15;;;15.90;99.90;;;;;;4934381;29;20058;-95
2023/09/01 08:38:05;;;;;;;10.95;3.65;;;16.10;99.90;;;;;;4949701;29;20069;-96
2023/09/01 08:40:31;;;;;;;10.05;3.42;;;16.20;99.90;;;;;;4947499;29;20026;-96
2023/09/01 08:43:02;;;;;;;16.40;3.90;;;16.30;99.90;;;;;;4947944;29;20063;-92
2023/09/01 08:45:31;;;;;;;9.80;3.45;;;16.50;99.90;;;;;;4948297;29;20043;-93
2023/09/01 08:47:57;;;;;;;12.50;3.03;;;16.60;99.90;;;;;;4949956;29;20050;-90
2023/09/01 08:50:23;;;;;;;15.02;4.03;;;16.60;99.90;;;;;;4951925;29;20027;-91
2023/09/01 08:52:49;;;;;;;31.33;6.43;;;16.80;99.90;;;;;;4949556;29;20042;-95
2023/09/01 08:55:17;;;;;;;8.13;3.08;;;16.80;99.90;;;;;;4948801;29;20938;-95
2023/09/01 08:57:44;;;;;;;10.50;3.88;;;16.90;99.90;;;;;;4929369;29;20031;-94
2023/09/01 09:00:10;;;;;;;14.63;3.45;;;17.00;99.90;;;;;;4949426;28;20063;-95
2023/09/01 09:02:43;;;;;;;10.93;3.80;;;17.00;99.90;;;;;;4948319;29;20401;-96
2023/09/01 09:05:13;;;;;;;13.18;3.55;;;17.10;99.90;;;;;;4949955;29;20597;-95
2023/09/01 09:07:38;;;;;;;18.00;3.63;;;17.20;99.90;;;;;;4950468;29;20035;-92
2023/09/01 09:10:06;;;;;;;13.40;2.95;;;17.30;99.90;;;;;;4949478;29;20118;-94
2023/09/01 09:12:43;;;;;;;19.17;3.90;;;17.40;99.90;;;;;;4946631;28;20023;-93
2023/09/01 09:15:17;;;;;;;14.20;3.47;;;17.60;99.90;;;;;;4948169;29;20089;-93
2023/09/01 09:17:44;;;;;;;14.30;3.72;;;17.60;99.90;;;;;;4942784;29;20031;-95
2023/09/01 09:20:18;;;;;;;20.60;3.45;;;17.50;99.90;;;;;;4950122;29;20047;-92
2023/09/01 09:22:50;;;;;;;11.20;3.65;;;17.60;99.90;;;;;;4948462;29;20066;-96
2023/09/01 09:25:28;;;;;;;10.88;3.58;;;17.60;99.90;;;;;;4929556;29;20051;-92
2023/09/01 09:28:20;;;;;;;13.75;2.95;;;17.60;99.90;;;;;;4940316;29;20034;-92
2023/09/01 09:30:52;;;;;;;15.52;2.90;;;17.70;99.90;;;;;;4946992;29;20039;-96
2023/09/01 09:33:35;;;;;;;10.60;3.17;;;17.80;99.90;;;;;;4950041;29;20039;-96
2023/09/01 09:36:03;;;;;;;9.32;2.85;;;17.90;99.90;;;;;;4941262;29;20405;-95
2023/09/01 09:38:47;;;;;;;9.50;2.95;;;18.00;99.90;;;;;;4947501;29;20034;-92
2023/09/01 09:41:14;;;;;;;12.32;3.10;;;18.10;99.90;;;;;;4928550;29;20382;-93
2023/09/01 09:43:49;;;;;;;11.95;3.03;;;18.20;99.90;;;;;;4948208;29;20031;-96
2023/09/01 09:46:16;;;;;;;13.13;3.63;;;18.20;99.90;;;;;;4951746;29;20047;-96
2023/09/01 09:48:43;;;;;;;10.88;2.90;;;18.30;99.90;;;;;;4948330;29;20117;-95
2023/09/01 09:51:10;;;;;;;7.25;3.40;;;18.40;99.90;;;;;;4933299;29;20027;-92
2023/09/01 09:53:37;;;;;;;16.95;3.42;;;18.40;99.90;;;;;;4952217;29;20035;-95
2023/09/01 09:56:33;;;;;;;11.85;2.80;;;18.50;99.90;;;;;;4953338;29;20035;-94
2023/09/01 09:59:03;;;;;;;;;;;18.50;99.90;;;;;;4949204;28;20071;-94
2023/09/01 10:01:33;;;;;;;10.95;2.97;;;18.50;99.90;;;;;;4946921;29;19911;-93
2023/09/01 10:04:05;;;;;;;10.38;2.92;;;18.60;99.90;;;;;;4946427;29;20093;-94
2023/09/01 10:06:35;;;;;;;7.00;2.85;;;18.60;99.90;;;;;;4949699;29;20527;-94
2023/09/01 10:09:05;;;;;;;8.88;2.55;;;18.60;99.90;;;;;;4951805;29;20059;-96
2023/09/01 10:11:31;;;;;;;11.38;3.10;;;18.60;99.90;;;;;;4950334;29;20023;-95
2023/09/01 10:13:57;;;;;;;10.00;3.28;;;18.70;99.90;;;;;;4948190;29;20264;-88
2023/09/01 10:16:23;;;;;;;9.15;3.22;;;18.70;99.90;;;;;;4950423;29;20031;-95
2023/09/01 10:18:49;;;;;;;9.57;2.90;;;18.60;99.90;;;;;;4949861;29;20574;-91
2023/09/01 10:21:16;;;;;;;5.10;2.38;;;18.60;99.90;;;;;;4931601;29;20094;-95
2023/09/01 10:23:43;;;;;;;4.15;2.35;;;18.50;99.90;;;;;;4947849;28;20057;-93
2023/09/01 10:26:15;;;;;;;5.38;2.50;;;18.40;99.90;;;;;;4949938;29;20039;-89
2023/09/01 10:29:07;;;;;;;5.38;2.50;;;18.40;99.90;;;;;;4950207;29;20494;-95
2023/09/01 10:31:35;;;;;;;7.60;2.92;;;18.40;99.90;;;;;;4948626;29;20082;-94
2023/09/01 10:34:12;;;;;;;8.40;2.45;;;18.40;99.90;;;;;;4946288;29;20035;-94
2023/09/01 10:36:41;;;;;;;14.60;3.08;;;18.40;99.90;;;;;;4941585;28;20118;-94
2023/09/01 10:39:23;;;;;;;6.45;2.83;;;18.50;99.90;;;;;;4940042;28;20528;-95
2023/09/01 10:42:02;;;;;;;5.68;2.53;;;18.50;99.90;;;;;;4946452;29;20031;-95
2023/09/01 10:45:06;;;;;;;7.55;2.58;;;18.60;99.90;;;;;;4946388;29;20038;-94
2023/09/01 10:47:32;;;;;;;7.30;2.67;;;18.50;99.90;;;;;;4927804;29;20046;-93
2023/09/01 10:49:58;;;;;;;6.00;2.70;;;18.50;99.90;;;;;;4940972;28;20039;-90
2023/09/01 10:52:31;;;;;;;7.07;2.72;;;18.50;99.90;;;;;;4942043;28;20049;-89
2023/09/01 10:55:00;;;;;;;7.07;2.45;;;18.50;99.90;;;;;;4940673;28;20031;-91
2023/09/01 10:57:50;;;;;;;8.55;2.55;;;18.50;99.90;;;;;;4925127;29;20024;-94
2023/09/01 11:00:34;;;;;;;5.25;2.50;;;18.40;99.90;;;;;;4947243;29;20112;-93
2023/09/01 11:03:33;;;;;;;5.15;2.35;;;18.40;99.90;;;;;;4933025;28;20042;-94
2023/09/01 11:06:03;;;;;;;7.05;2.60;;;18.40;99.90;;;;;;4951065;28;20057;-93
2023/09/01 11:08:31;;;;;;;6.95;3.33;;;18.40;99.90;;;;;;4946146;29;20027;-90
2023/09/01 11:11:09;;;;;;;7.20;2.83;;;18.50;99.90;;;;;;4945745;29;20071;-89
2023/09/01 11:13:35;;;;;;;8.77;2.72;;;18.50;99.90;;;;;;4944641;29;20035;-95
2023/09/01 11:16:08;;;;;;;7.28;2.80;;;18.60;99.90;;;;;;4945872;29;20075;-91
2023/09/01 11:18:34;;;;;;;5.47;2.70;;;18.70;99.90;;;;;;4945812;29;20031;-92
2023/09/01 11:21:00;;;;;;;5.82;2.45;;;18.70;99.90;;;;;;4947543;29;20074;-90
2023/09/01 11:23:32;;;;;;;9.05;3.08;;;18.70;99.90;;;;;;4947175;29;20481;-91
2023/09/01 11:26:00;;;;;;;7.70;2.50;;;18.70;99.90;;;;;;4946547;29;20039;-94
2023/09/01 11:28:28;;;;;;;8.13;3.05;;;18.70;99.90;;;;;;4937882;29;20039;-92
2023/09/01 11:30:56;;;;;;;6.88;2.20;;;18.70;99.90;;;;;;4939794;29;20187;-94
2023/09/01 11:33:23;;;;;;;6.63;2.55;;;18.70;99.90;;;;;;4944608;28;20034;-94
2023/09/01 11:35:49;;;;;;;7.35;2.83;;;18.70;99.90;;;;;;4928106;29;20042;-93
2023/09/01 11:38:19;;;;;;;6.57;2.17;;;18.60;99.90;;;;;;4946970;28;20027;-94
2023/09/01 11:40:49;;;;;;;6.47;2.75;;;18.50;99.90;;;;;;4946184;28;20110;-95
2023/09/01 11:43:16;;;;;;;6.00;2.42;;;18.40;99.90;;;;;;4946398;29;20031;-94
2023/09/01 11:45:45;;;;;;;6.70;1.75;;;18.40;99.90;;;;;;4943902;29;20404;-94
2023/09/01 11:48:11;;;;;;;2.45;1.60;;;18.50;99.90;;;;;;4939771;29;20114;-95
2023/09/01 11:50:42;;;;;;;2.55;1.65;;;18.50;99.90;;;;;;4943936;29;20062;-93
2023/09/01 11:53:08;;;;;;;3.13;1.73;;;18.60;99.90;;;;;;4933905;29;20429;-94
2023/09/01 11:55:37;;;;;;;3.28;1.80;;;18.70;99.90;;;;;;4946131;29;20031;-94
2023/09/01 11:58:03;;;;;;;7.32;2.40;;;18.70;99.90;;;;;;4945418;29;20433;-93
2023/09/01 12:00:34;;;;;;;6.15;2.20;;;18.70;99.90;;;;;;4941883;28;20463;-93
2023/09/01 12:03:00;;;;;;;5.38;1.92;;;18.70;99.90;;;;;;4945470;28;20083;-94
2023/09/01 12:05:33;;;;;;;8.57;2.30;;;18.80;99.90;;;;;;4946909;29;20031;-96
2023/09/01 12:08:00;;;;;;;7.00;2.20;;;18.80;99.90;;;;;;4947130;29;20513;-92
2023/09/01 12:10:30;;;;;;;4.88;2.33;;;18.70;99.90;;;;;;4945999;29;20501;-88
2023/09/01 12:13:12;;;;;;;5.22;2.40;;;18.80;99.90;;;;;;4935041;29;20035;-93
2023/09/01 12:16:01;;;;;;;4.20;1.70;;;18.80;99.90;;;;;;4944697;29;20353;-91
2023/09/01 12:18:30;;;;;;;3.30;1.90;;;18.70;99.90;;;;;;4945304;29;20028;-94
2023/09/01 12:20:56;;;;;;;4.38;1.80;;;18.70;99.90;;;;;;4946604;29;20034;-94
2023/09/01 12:23:34;;;;;;;5.60;1.92;;;18.70;99.90;;;;;;4946376;29;20038;-95
2023/09/01 12:26:01;;;;;;;4.65;1.77;;;18.70;99.90;;;;;;4942501;29;20039;-89
2023/09/01 12:28:30;;;;;;;3.53;1.90;;;18.70;99.90;;;;;;4927666;29;20043;-90
2023/09/01 12:30:56;;;;;;;4.65;1.60;;;18.70;99.90;;;;;;4946562;29;20118;-92
2023/09/01 12:33:23;;;;;;;5.55;1.50;;;18.80;99.90;;;;;;4945636;29;20024;-93
2023/09/01 12:35:50;;;;;;;4.93;1.65;;;18.70;99.90;;;;;;4946759;29;20023;-93
2023/09/01 12:38:16;;;;;;;6.88;2.40;;;18.70;99.90;;;;;;4929918;29;20050;-95
2023/09/01 12:40:42;;;;;;;5.78;1.95;;;18.70;99.90;;;;;;4945135;29;20035;-93
2023/09/01 12:43:08;;;;;;;3.92;2.03;;;18.70;99.90;;;;;;4940760;29;20542;-94
2023/09/01 12:45:33;;;;;;;4.60;1.85;;;18.70;99.90;;;;;;4942979;29;20094;-92
2023/09/01 12:48:01;;;;;;;4.07;2.08;;;18.70;99.90;;;;;;4938021;28;20375;-91